Time;durP1;ratioP1;P1;durP2;ratioP2;P2;SDS_P1;SDS_P2;PMS_P1;PMS_P2;Temp;Humidity;BMP_temperature;BMP_pressure;BME280_temperature;BME280_humidity;BME280_pressure;Samples;Min_cycle;Max_cycle;Signal;HPM_P1;HPM_P2
2023/01/22 00:00:28;;;;;;;53.38;34.65;;;;;;;-0.93;100.00;66677.91;4987059;28;20533;-83
2023/01/22 00:02:54;;;;;;;51.72;33.65;;;;;;;-0.86;100.00;66685.19;4987921;28;20049;-83
2023/01/22 00:05:20;;;;;;;51.70;33.60;;;;;;;-0.82;100.00;66685.03;4986599;28;20117;-82
2023/01/22 00:07:45;;;;;;;48.22;33.25;;;;;;;-0.78;100.00;66696.81;4987846;28;20530;-84
2023/01/22 00:10:11;;;;;;;50.28;34.00;;;;;;;-0.76;100.00;66699.63;4987035;28;20077;-83
2023/01/22 00:12:36;;;;;;;53.42;34.25;;;;;;;;;;4974864;28;20441;-82
2023/01/22 00:15:02;;;;;;;49.88;33.35;;;;;;;-0.72;100.00;66706.75;5010033;28;20041;-83
2023/01/22 00:17:28;;;;;;;53.45;33.63;;;;;;;;;;4996688;28;20042;-83
2023/01/22 00:19:53;;;;;;;45.25;30.83;;;;;;;-0.70;100.00;66708.97;5004675;28;20045;-85
2023/01/22 00:22:19;;;;;;;47.15;30.75;;;;;;;-0.70;100.00;66703.19;5008938;28;20038;-83
2023/01/22 00:24:44;;;;;;;43.20;29.27;;;;;;;;;;5004152;28;20413;-83
2023/01/22 00:27:09;;;;;;;45.15;30.02;;;;;;;-0.71;100.00;66707.28;5003955;28;20049;-83
2023/01/22 00:29:35;;;;;;;42.08;30.08;;;;;;;-0.71;100.00;66696.84;5003572;28;20393;-85
2023/01/22 00:32:00;;;;;;;42.72;28.92;;;;;;;-0.71;100.00;66702.63;4992876;28;20048;-83
2023/01/22 00:34:26;;;;;;;42.95;28.67;;;;;;;-0.70;100.00;66706.34;4992315;28;20034;-83
2023/01/22 00:36:51;;;;;;;41.30;28.50;;;;;;;-0.68;100.00;66700.22;4992452;28;20176;-82
2023/01/22 00:39:16;;;;;;;42.85;29.05;;;;;;;-0.66;100.00;66707.69;5010083;28;20045;-82
2023/01/22 00:41:42;;;;;;;40.55;29.70;;;;;;;-0.66;100.00;66707.69;4993065;28;20044;-83
2023/01/22 00:44:07;;;;;;;36.28;27.17;;;;;;;-0.64;100.00;66709.38;5009763;28;20053;-84
2023/01/22 00:46:33;;;;;;;39.17;27.90;;;;;;;;;;4996593;28;20062;-83
2023/01/22 00:48:59;;;;;;;41.33;26.17;;;;;;;-0.63;100.00;66710.47;5009385;28;20042;-83
2023/01/22 00:51:24;;;;;;;34.90;24.67;;;;;;;-0.63;100.00;66711.06;5009668;28;20111;-83
2023/01/22 00:53:49;;;;;;;36.85;25.15;;;;;;;-0.63;100.00;66716.28;4997836;28;20041;-83
2023/01/22 00:56:15;;;;;;;31.63;23.08;;;;;;;-0.60;100.00;66713.88;5008748;28;20042;-83
2023/01/22 00:58:41;;;;;;;35.67;24.02;;;;;;;-0.60;100.00;66713.88;5010630;28;20040;-82
2023/01/22 01:01:06;;;;;;;34.08;24.45;;;;;;;-0.60;100.00;66713.88;5009427;28;20686;-83
2023/01/22 01:03:32;;;;;;;33.97;24.20;;;;;;;;;;4998293;28;20062;-83
2023/01/22 01:06:02;;;;;;;32.90;24.63;;;;;;;-0.57;100.00;66719.84;5009551;28;20157;-83
2023/01/22 01:08:30;;;;;;;33.08;23.65;;;;;;;-0.55;100.00;66719.47;5010201;28;20382;-83
2023/01/22 01:10:57;;;;;;;33.88;22.90;;;;;;;-0.55;100.00;66720.03;5009847;28;20108;-83
2023/01/22 01:13:23;;;;;;;31.85;23.73;;;;;;;-0.55;100.00;66722.66;4990680;28;20042;-83
2023/01/22 01:15:48;;;;;;;33.70;24.23;;;;;;;;;;5007707;28;20037;-83
2023/01/22 01:18:14;;;;;;;32.38;22.20;;;;;;;-0.51;100.00;66726.59;5007956;28;20049;-83
2023/01/22 01:20:40;;;;;;;30.73;22.08;;;;;;;-0.52;100.00;66722.84;5007749;28;20132;-85
2023/01/22 01:23:06;;;;;;;29.77;22.35;;;;;;;-0.52;100.00;66722.84;4989141;28;20045;-83
2023/01/22 01:25:31;;;;;;;30.58;22.17;;;;;;;-0.51;100.00;66723.97;5004108;28;20044;-83
2023/01/22 01:27:56;;;;;;;30.73;22.80;;;;;;;;;;5007275;28;20034;-83
2023/01/22 01:30:22;;;;;;;28.42;21.17;;;;;;;-0.49;100.00;66726.22;5005905;28;20054;-83
2023/01/22 01:32:48;;;;;;;33.17;20.83;;;;;;;-0.50;100.00;66728.28;5003545;28;20046;-83
2023/01/22 01:35:13;;;;;;;29.35;22.45;;;;;;;;;;5003892;28;20046;-83
2023/01/22 01:37:39;;;;;;;26.10;20.27;;;;;;;-0.50;100.00;66727.72;5004099;28;20497;-84
2023/01/22 01:40:05;;;;;;;31.08;20.60;;;;;;;-0.48;100.00;66727.34;4989924;28;20489;-83
2023/01/22 01:42:34;;;;;;;30.13;20.38;;;;;;;-0.49;100.00;66728.81;5003603;28;20049;-83
2023/01/22 01:45:18;;;;;;;28.48;21.05;;;;;;;;;;5003547;28;20077;-83
2023/01/22 01:47:45;;;;;;;32.78;23.58;;;;;;;-0.51;100.00;66726.59;5000135;28;20048;-82
2023/01/22 01:50:11;;;;;;;26.38;19.95;;;;;;;-0.53;100.00;66722.28;4985664;28;20095;-83
2023/01/22 01:52:36;;;;;;;29.20;21.75;;;;;;;;;;4991579;28;20516;-81
2023/01/22 01:55:02;;;;;;;28.38;19.95;;;;;;;;;;5011389;28;20057;-82
2023/01/22 01:57:32;;;;;;;26.88;18.30;;;;;;;-0.50;100.00;66725.66;5009365;28;20046;-82
2023/01/22 01:59:59;;;;;;;25.70;19.60;;;;;;;-0.52;100.00;66722.84;5010768;28;20045;-82
2023/01/22 02:02:24;;;;;;;25.65;19.85;;;;;;;-0.51;100.00;66729.22;5009371;28;20038;-82
2023/01/22 02:04:51;;;;;;;25.98;18.30;;;;;;;-0.53;100.00;66721.72;5010218;28;20046;-82
2023/01/22 02:07:18;;;;;;;23.33;18.65;;;;;;;-0.54;100.00;66721.16;5008016;28;20112;-82
2023/01/22 02:09:43;;;;;;;23.85;18.33;;;;;;;-0.51;100.00;66726.59;5009752;28;20095;-82
2023/01/22 02:12:09;;;;;;;26.20;18.92;;;;;;;-0.54;100.00;66726.41;5008883;28;20382;-82
2023/01/22 02:14:37;;;;;;;22.90;17.67;;;;;;;;;;5009751;28;20409;-81
2023/01/22 02:17:10;;;;;;;20.90;17.08;;;;;;;;;;5008743;28;20046;-82
2023/01/22 02:19:35;;;;;;;24.00;18.25;;;;;;;-0.54;100.00;66720.59;5009281;28;20517;-82
2023/01/22 02:22:01;;;;;;;23.45;16.83;;;;;;;-0.53;100.00;66717.06;5009124;28;20052;-82
2023/01/22 02:24:29;;;;;;;24.92;17.77;;;;;;;-0.54;100.00;66723.22;5006128;28;20050;-82
2023/01/22 02:26:54;;;;;;;22.00;17.10;;;;;;;-0.53;100.00;66716.50;5011087;28;20044;-82
2023/01/22 02:29:20;;;;;;;23.08;17.45;;;;;;;-0.53;100.00;66724.91;5010260;28;20106;-82
2023/01/22 02:31:45;;;;;;;22.17;17.55;;;;;;;;;;4994770;28;20050;-82
2023/01/22 02:34:11;;;;;;;22.67;17.08;;;;;;;-0.53;100.00;66721.72;5008455;28;20053;-82
2023/01/22 02:36:37;;;;;;;22.67;18.15;;;;;;;;;;5012252;28;20057;-82
2023/01/22 02:39:02;;;;;;;24.33;17.85;;;;;;;-0.60;100.00;66716.47;5015289;28;20050;-82
2023/01/22 02:41:28;;;;;;;24.05;18.10;;;;;;;-0.58;100.00;66716.09;5015122;28;20069;-83
2023/01/22 02:43:53;;;;;;;22.88;17.75;;;;;;;-0.59;100.00;66715.00;5015090;28;20053;-82
2023/01/22 02:46:19;;;;;;;25.80;18.05;;;;;;;-0.60;100.00;66714.44;5012896;28;20045;-82
2023/01/22 02:48:45;;;;;;;25.92;18.20;;;;;;;-0.58;100.00;66711.44;5014195;28;20049;-82
2023/01/22 02:51:11;;;;;;;25.42;18.77;;;;;;;-0.55;100.00;66719.47;5013400;28;20060;-82
2023/01/22 02:53:36;;;;;;;22.95;17.20;;;;;;;-0.58;100.00;66718.72;5016323;28;20049;-82
2023/01/22 02:56:09;;;;;;;24.98;18.50;;;;;;;-0.58;100.00;66716.66;5012895;28;20041;-82
2023/01/22 02:58:35;;;;;;;24.05;18.85;;;;;;;-0.56;100.00;66721.53;5012251;28;20066;-82
2023/01/22 03:01:22;;;;;;;25.77;18.40;;;;;;;-0.60;100.00;66709.19;4995893;28;20061;-82
2023/01/22 03:03:49;;;;;;;23.08;18.08;;;;;;;-0.60;100.00;66716.47;4964531;28;20049;-82
2023/01/22 03:06:20;;;;;;;23.77;17.48;;;;;;;-0.60;100.00;66716.47;4998968;28;20049;-82
2023/01/22 03:08:45;;;;;;;23.05;18.02;;;;;;;;;;5011646;28;20046;-82
2023/01/22 03:11:10;;;;;;;25.85;16.98;;;;;;;-0.57;100.00;66717.78;5009007;28;20065;-82
2023/01/22 03:21:47;;;;;;;23.25;17.42;;;;;;;-0.62;100.00;66714.22;5006557;28;20085;-82
2023/01/22 03:24:13;;;;;;;22.67;17.73;;;;;;;-0.63;100.00;66711.06;5012456;28;20042;-82
2023/01/22 03:26:38;;;;;;;20.88;17.40;;;;;;;;;;5014571;28;20037;-82
2023/01/22 03:29:03;;;;;;;24.02;16.52;;;;;;;-0.62;100.00;66711.63;5015867;28;20064;-82
2023/01/22 03:31:29;;;;;;;23.00;16.75;;;;;;;-0.64;100.00;66704.69;5015388;28;20127;-82
2023/01/22 03:33:54;;;;;;;22.88;15.98;;;;;;;-0.64;100.00;66709.38;5015616;28;20595;-82
2023/01/22 03:36:19;;;;;;;20.27;16.30;;;;;;;;;;5015485;28;20516;-82
2023/01/22 03:38:45;;;;;;;24.20;18.00;;;;;;;-0.64;100.00;66704.13;4995814;28;20045;-82
2023/01/22 03:41:13;;;;;;;21.75;15.85;;;;;;;-0.63;100.00;66705.25;4997024;28;20066;-82
2023/01/22 03:43:39;;;;;;;23.73;16.85;;;;;;;-0.66;100.00;66709.72;4996630;28;20042;-82
2023/01/22 03:46:14;;;;;;;22.45;16.75;;;;;;;;;;4993755;28;20085;-82
2023/01/22 03:48:40;;;;;;;23.20;16.55;;;;;;;-0.68;100.00;66706.00;5013869;28;20045;-85
2023/01/22 03:51:11;;;;;;;24.85;18.38;;;;;;;-0.72;100.00;66704.13;5011039;28;20046;-83
2023/01/22 03:53:37;;;;;;;21.42;16.38;;;;;;;;;;5010126;28;20534;-85
2023/01/22 03:56:06;;;;;;;24.63;16.25;;;;;;;-0.73;100.00;66702.97;5009044;28;20057;-83
2023/01/22 03:58:32;;;;;;;22.73;17.48;;;;;;;-0.74;100.00;66699.25;5011853;28;20042;-83
2023/01/22 04:01:01;;;;;;;21.08;17.02;;;;;;;;;;4995166;28;20076;-83
2023/01/22 04:03:27;;;;;;;;;;;;;;;-0.75;100.00;66698.13;4994448;28;20050;-83
2023/01/22 04:05:53;;;;;;;23.40;16.60;;;;;;;-0.83;100.00;66688.59;5004517;28;19924;-83
2023/01/22 04:08:18;;;;;;;22.63;16.98;;;;;;;-0.82;100.00;66692.88;5012848;28;20770;-83
2023/01/22 04:10:44;;;;;;;23.10;17.27;;;;;;;-0.79;100.00;66693.63;4994970;28;20038;-84
2023/01/22 04:13:09;;;;;;;21.75;16.27;;;;;;;;;;4995513;28;20045;-83
2023/01/22 04:15:35;;;;;;;21.05;16.52;;;;;;;-0.76;100.00;66699.63;5010717;28;20132;-84
2023/01/22 04:18:00;;;;;;;21.50;15.05;;;;;;;-0.73;100.00;66700.38;4993500;28;20129;-83
2023/01/22 04:20:25;;;;;;;21.20;16.25;;;;;;;-0.73;100.00;66700.38;5010378;28;20053;-83
2023/01/22 04:22:51;;;;;;;22.60;15.75;;;;;;;-0.73;100.00;66702.44;5012033;28;20412;-83
2023/01/22 04:25:16;;;;;;;21.15;16.02;;;;;;;;;;4992677;28;20038;-83
2023/01/22 04:27:43;;;;;;;20.35;16.10;;;;;;;-0.70;100.00;66703.19;5011297;28;20038;-83
2023/01/22 04:30:09;;;;;;;19.75;15.43;;;;;;;-0.72;100.00;66701.50;5012003;28;20052;-84
2023/01/22 04:32:34;;;;;;;20.00;15.27;;;;;;;-0.71;100.00;66702.63;4993387;28;20467;-83
2023/01/22 04:35:00;;;;;;;20.63;15.57;;;;;;;-0.70;100.00;66703.75;5009546;28;20033;-84
2023/01/22 04:37:25;;;;;;;22.73;16.00;;;;;;;-0.71;100.00;66705.25;5009216;28;20485;-83
2023/01/22 04:39:50;;;;;;;18.80;15.48;;;;;;;-0.68;100.00;66705.44;5011028;28;20060;-84
2023/01/22 04:42:16;;;;;;;20.67;14.75;;;;;;;;;;5010098;28;20512;-82
2023/01/22 04:44:41;;;;;;;19.00;14.27;;;;;;;-0.67;100.00;66706.56;5010007;28;20496;-82
2023/01/22 04:47:06;;;;;;;20.45;15.07;;;;;;;-0.66;100.00;66701.88;4993109;28;20070;-84
2023/01/22 04:49:31;;;;;;;17.75;13.32;;;;;;;-0.68;100.00;66706.00;5011437;28;20067;-83
2023/01/22 04:51:57;;;;;;;19.05;15.10;;;;;;;;;;5010590;28;20038;-83
2023/01/22 04:54:22;;;;;;;19.05;15.10;;;;;;;-0.64;100.00;66711.97;5009604;28;20157;-83
2023/01/22 04:56:47;;;;;;;20.92;13.77;;;;;;;;;;4990613;28;20046;-83
2023/01/22 04:59:13;;;;;;;18.08;14.13;;;;;;;-0.65;100.00;66708.25;5010167;28;20103;-84
2023/01/22 05:01:38;;;;;;;17.23;14.27;;;;;;;-0.65;100.00;66708.25;5009944;28;20045;-83
2023/01/22 05:04:04;;;;;;;17.83;14.68;;;;;;;-0.64;100.00;66709.38;5009615;28;20041;-83
2023/01/22 05:06:29;;;;;;;16.60;13.35;;;;;;;;;;5009350;28;20034;-83
2023/01/22 05:08:54;;;;;;;17.35;13.40;;;;;;;-0.66;100.00;66707.69;5010182;28;20038;-83
2023/01/22 05:11:20;;;;;;;16.08;12.95;;;;;;;-0.65;100.00;66710.88;5009027;28;20054;-82
2023/01/22 05:13:45;;;;;;;18.98;13.98;;;;;;;-0.66;100.00;66707.69;5009919;28;20048;-83
2023/01/22 05:16:10;;;;;;;20.80;14.52;;;;;;;;;;5009944;28;20663;-83
2023/01/22 05:18:36;;;;;;;16.15;12.98;;;;;;;;;;5010449;28;20447;-83
2023/01/22 05:21:01;;;;;;;19.55;14.20;;;;;;;-0.67;100.00;66711.78;5009465;28;20053;-83
2023/01/22 05:23:27;;;;;;;20.15;14.18;;;;;;;;;;5010683;28;20106;-83
2023/01/22 05:25:52;;;;;;;17.98;14.10;;;;;;;-0.67;100.00;66706.56;5009165;28;20050;-83
2023/01/22 05:28:17;;;;;;;18.02;14.50;;;;;;;;;;4992786;28;20129;-84
2023/01/22 05:30:43;;;;;;;19.92;15.15;;;;;;;-0.69;100.00;66699.09;5008120;28;20069;-83
2023/01/22 05:33:08;;;;;;;22.13;14.25;;;;;;;-0.66;100.00;66712.34;5010177;28;20412;-84
2023/01/22 05:35:33;;;;;;;20.23;16.33;;;;;;;-0.69;100.00;66707.50;5010204;28;20419;-83
2023/01/22 05:37:59;;;;;;;19.88;14.85;;;;;;;;;;5008620;28;20045;-83
2023/01/22 05:40:24;;;;;;;19.30;15.13;;;;;;;-0.71;100.00;66702.06;5011349;28;20074;-84
2023/01/22 05:42:49;;;;;;;20.30;16.33;;;;;;;-0.71;100.00;66702.63;5011769;28;20038;-83
2023/01/22 05:45:15;;;;;;;20.92;15.52;;;;;;;;;;5010618;28;20095;-83
2023/01/22 05:47:40;;;;;;;20.98;15.25;;;;;;;-0.71;100.00;66702.06;5011069;28;20053;-83
2023/01/22 05:50:05;;;;;;;18.20;15.20;;;;;;;;;;5009165;28;20041;-83
2023/01/22 05:52:31;;;;;;;18.98;15.07;;;;;;;-0.73;100.00;66700.38;5008843;28;20060;-84
2023/01/22 05:54:58;;;;;;;20.58;15.45;;;;;;;-0.74;100.00;66698.69;5010405;28;20042;-83
2023/01/22 05:57:24;;;;;;;21.45;15.55;;;;;;;-0.73;100.00;66705.03;5009019;28;20061;-83
2023/01/22 05:59:49;;;;;;;20.45;16.02;;;;;;;-0.75;100.00;66700.75;4994816;28;20046;-83
2023/01/22 06:02:14;;;;;;;21.40;16.15;;;;;;;-0.74;100.00;66698.69;5011151;28;20064;-84
2023/01/22 06:04:40;;;;;;;19.08;15.95;;;;;;;;;;5012762;28;20034;-84
2023/01/22 06:07:05;;;;;;;19.98;15.77;;;;;;;;;;5013431;28;20052;-83
2023/01/22 06:09:30;;;;;;;22.98;18.45;;;;;;;-0.75;100.00;66692.34;5015393;28;20133;-83
2023/01/22 06:11:56;;;;;;;24.42;17.95;;;;;;;-0.74;100.00;66699.25;5014458;28;20066;-83
2023/01/22 06:14:21;;;;;;;27.42;21.58;;;;;;;-0.74;100.00;66701.88;4996702;28;20050;-83
2023/01/22 06:16:46;;;;;;;21.10;17.30;;;;;;;-0.75;100.00;66700.75;4996472;28;20045;-84
2023/01/22 06:19:11;;;;;;;22.92;18.00;;;;;;;;;;5015642;28;20038;-84
2023/01/22 06:21:37;;;;;;;23.73;18.13;;;;;;;-0.77;100.00;66695.88;5013575;28;20073;-85
2023/01/22 06:24:03;;;;;;;20.35;14.82;;;;;;;-0.73;100.00;66700.38;5014182;28;20045;-84
2023/01/22 06:26:28;;;;;;;24.80;18.63;;;;;;;-0.75;100.00;66700.75;5014205;28;20042;-85
2023/01/22 06:28:54;;;;;;;21.45;16.23;;;;;;;;;;5012854;28;20038;-83
2023/01/22 06:31:19;;;;;;;21.90;16.90;;;;;;;-0.74;100.00;66704.47;5013715;28;20069;-83
2023/01/22 06:33:44;;;;;;;20.17;16.15;;;;;;;-0.73;100.00;66702.97;5014849;28;20038;-83
2023/01/22 06:36:10;;;;;;;20.38;16.48;;;;;;;-0.74;100.00;66701.88;5013415;28;20065;-83
2023/01/22 06:38:36;;;;;;;21.02;16.98;;;;;;;-0.75;100.00;66698.13;4995721;28;20503;-85
2023/01/22 06:41:01;;;;;;;21.90;16.23;;;;;;;;;;5013090;28;20072;-84
2023/01/22 06:43:27;;;;;;;21.77;16.45;;;;;;;-0.73;100.00;66700.38;5012648;28;20050;-85
2023/01/22 06:45:53;;;;;;;20.65;17.08;;;;;;;-0.76;100.00;66697.00;5011398;28;20810;-83
2023/01/22 06:48:19;;;;;;;20.05;14.73;;;;;;;-0.72;100.00;66701.50;4995418;28;20038;-84
2023/01/22 06:50:44;;;;;;;20.13;15.48;;;;;;;-0.72;100.00;66700.94;5013871;28;20072;-84
2023/01/22 06:53:10;;;;;;;24.63;18.38;;;;;;;-0.74;100.00;66704.47;5012622;28;20048;-84
2023/01/22 06:55:36;;;;;;;20.05;15.82;;;;;;;-0.73;100.00;66699.81;4993639;28;20045;-84
2023/01/22 06:58:01;;;;;;;18.13;14.68;;;;;;;-0.74;100.00;66701.88;5013463;28;20034;-84
2023/01/22 07:00:27;;;;;;;18.83;15.23;;;;;;;-0.72;100.00;66703.53;5013058;28;20111;-83
2023/01/22 07:02:53;;;;;;;19.35;15.00;;;;;;;;;;5014239;28;20038;-83
2023/01/22 07:05:19;;;;;;;19.08;14.38;;;;;;;-0.72;100.00;66695.69;4994107;28;20038;-85
2023/01/22 07:07:45;;;;;;;17.63;14.18;;;;;;;;;;5008889;28;20037;-85
2023/01/22 07:10:10;;;;;;;20.20;15.00;;;;;;;;;;5013868;28;20042;-84
2023/01/22 07:12:35;;;;;;;22.58;17.48;;;;;;;-0.72;100.00;66704.13;5012915;28;20050;-83
2023/01/22 07:15:01;;;;;;;23.95;18.98;;;;;;;-0.74;100.00;66699.25;5011074;28;20434;-84
2023/01/22 07:17:27;;;;;;;19.33;14.70;;;;;;;-0.73;100.00;66702.97;4992690;28;20048;-83
2023/01/22 07:19:52;;;;;;;17.65;15.65;;;;;;;-0.72;100.00;66700.94;5010747;28;20038;-82
2023/01/22 07:22:18;;;;;;;19.98;15.55;;;;;;;-0.72;100.00;66700.94;4992489;28;20053;-83
2023/01/22 07:24:43;;;;;;;21.65;16.83;;;;;;;-0.72;100.00;66701.50;5010712;28;20133;-83
2023/01/22 07:27:08;;;;;;;20.65;16.23;;;;;;;-0.70;100.00;66697.97;5009552;28;20144;-83
2023/01/22 07:29:33;;;;;;;17.17;15.07;;;;;;;;;;5010328;28;20049;-83
2023/01/22 07:31:59;;;;;;;20.02;17.63;;;;;;;-0.69;100.00;66704.88;4994004;28;20125;-85
2023/01/22 07:34:24;;;;;;;17.33;14.52;;;;;;;-0.71;100.00;66702.06;5008786;28;20108;-83
2023/01/22 07:36:49;;;;;;;21.70;18.35;;;;;;;-0.71;100.00;66702.06;4989997;28;20413;-84
2023/01/22 07:39:15;;;;;;;22.75;18.67;;;;;;;;;;5009527;28;20046;-82
2023/01/22 07:41:40;;;;;;;15.68;12.25;;;;;;;;;;5009478;28;20412;-87
2023/01/22 07:44:07;;;;;;;18.88;13.95;;;;;;;-0.70;100.00;66698.50;5010287;28;20038;-83
2023/01/22 07:46:34;;;;;;;16.65;14.23;;;;;;;-0.70;100.00;66703.19;5009708;28;20046;-85
2023/01/22 07:48:59;;;;;;;16.75;13.10;;;;;;;-0.70;100.00;66703.19;5008064;28;20061;-82
2023/01/22 07:51:25;;;;;;;17.45;13.20;;;;;;;-0.67;100.00;66706.56;5009631;28;20058;-86
2023/01/22 07:53:50;;;;;;;15.68;13.30;;;;;;;;;;5010476;28;20042;-82
2023/01/22 07:56:17;;;;;;;19.13;14.05;;;;;;;;;;5009439;28;20686;-83
2023/01/22 07:58:43;;;;;;;19.67;14.23;;;;;;;-0.65;100.00;66708.25;5005568;28;20053;-84
2023/01/22 08:01:09;;;;;;;21.65;16.25;;;;;;;-0.65;100.00;66710.88;4982945;28;20573;-82
2023/01/22 08:03:36;;;;;;;26.80;17.75;;;;;;;-0.68;100.00;66710.66;4982149;28;20045;-86
2023/01/22 08:06:07;;;;;;;26.52;19.10;;;;;;;-0.68;100.00;66708.59;4993591;28;20037;-82
2023/01/22 08:08:32;;;;;;;28.17;20.48;;;;;;;-0.65;100.00;66708.25;5013650;28;20048;-83
2023/01/22 08:10:58;;;;;;;27.88;20.40;;;;;;;;;;4986723;28;20402;-81
2023/01/22 08:13:23;;;;;;;30.50;22.33;;;;;;;-0.65;100.00;66703.03;4993551;28;20050;-82
2023/01/22 08:15:49;;;;;;;28.00;21.58;;;;;;;-0.66;100.00;66707.69;4991836;28;20053;-82
2023/01/22 08:18:14;;;;;;;27.20;20.80;;;;;;;;;;4994358;28;20642;-80
2023/01/22 08:20:39;;;;;;;26.02;20.80;;;;;;;-0.64;100.00;66712.53;4977516;28;20046;-79
2023/01/22 08:23:04;;;;;;;24.58;18.98;;;;;;;-0.66;100.00;66707.13;5008743;28;20053;-83
2023/01/22 08:25:30;;;;;;;22.58;18.08;;;;;;;-0.61;100.00;66712.72;5012544;28;20042;-81
2023/01/22 08:27:55;;;;;;;27.02;20.30;;;;;;;-0.60;100.00;66716.47;5013325;28;20129;-83
2023/01/22 08:30:21;;;;;;;29.52;21.10;;;;;;;;;;4997348;28;20509;-83
2023/01/22 08:32:46;;;;;;;24.58;17.75;;;;;;;-0.58;100.00;66718.72;5008947;28;20041;-83
2023/01/22 08:35:13;;;;;;;21.90;17.70;;;;;;;-0.59;100.00;66715.53;5008963;28;20042;-80
2023/01/22 08:37:38;;;;;;;21.65;17.35;;;;;;;-0.59;100.00;66715.00;4999331;28;20073;-83
2023/01/22 08:40:07;;;;;;;21.33;15.70;;;;;;;-0.57;100.00;66717.25;5009233;28;20050;-83
2023/01/22 08:42:32;;;;;;;22.75;17.58;;;;;;;-0.57;100.00;66717.78;5011263;28;20042;-83
2023/01/22 08:44:57;;;;;;;21.25;16.73;;;;;;;-0.54;100.00;66720.59;5008194;28;20068;-83
2023/01/22 08:47:23;;;;;;;21.35;16.63;;;;;;;-0.53;100.00;66721.72;5009568;28;20054;-83
2023/01/22 08:49:49;;;;;;;22.55;16.50;;;;;;;-0.49;100.00;66728.81;5009532;28;20045;-83
2023/01/22 08:52:14;;;;;;;21.15;15.75;;;;;;;-0.51;100.00;66729.22;5010252;28;20060;-83
2023/01/22 08:54:39;;;;;;;20.60;15.80;;;;;;;-0.48;100.00;66727.91;5007849;28;20046;-80
2023/01/22 08:57:05;;;;;;;23.08;17.23;;;;;;;-0.48;100.00;66722.69;5008056;28;20511;-81
2023/01/22 08:59:30;;;;;;;25.50;17.95;;;;;;;;;;5007571;28;20460;-83
2023/01/22 09:01:56;;;;;;;21.63;16.95;;;;;;;;;;5007240;28;20085;-82
2023/01/22 09:04:22;;;;;;;22.45;15.90;;;;;;;;;;4992218;28;20393;-83
2023/01/22 09:06:47;;;;;;;20.23;16.95;;;;;;;-0.44;100.00;66733.91;5009429;28;20042;-82
2023/01/22 09:09:12;;;;;;;19.67;15.25;;;;;;;-0.41;100.00;66735.22;5010521;28;20057;-83
2023/01/22 09:11:38;;;;;;;21.42;18.05;;;;;;;-0.41;100.00;66737.81;4991393;28;20428;-81
2023/01/22 09:14:07;;;;;;;21.40;18.20;;;;;;;-0.42;100.00;66734.09;5010623;28;20050;-82
2023/01/22 09:16:32;;;;;;;23.55;19.25;;;;;;;-0.42;100.00;66734.09;5010503;28;20092;-82
2023/01/22 09:18:57;;;;;;;20.60;17.05;;;;;;;-0.43;100.00;66732.97;5011320;28;20041;-82
2023/01/22 09:21:23;;;;;;;23.20;17.80;;;;;;;;;;5010614;28;20053;-84
2023/01/22 09:23:48;;;;;;;23.30;19.17;;;;;;;;;;5010776;28;20105;-82
2023/01/22 09:26:13;;;;;;;20.73;17.60;;;;;;;-0.42;100.00;66734.09;5009613;28;20045;-84
2023/01/22 09:28:39;;;;;;;22.77;18.58;;;;;;;-0.41;100.00;66737.81;5009745;28;20042;-82
2023/01/22 09:31:04;;;;;;;22.52;18.10;;;;;;;-0.41;100.00;66729.97;5008982;28;20118;-84
2023/01/22 09:33:29;;;;;;;25.42;20.50;;;;;;;-0.42;100.00;66734.09;4992550;28;20497;-84
2023/01/22 09:36:04;;;;;;;25.63;19.95;;;;;;;;;;5007977;28;20088;-82
2023/01/22 09:38:30;;;;;;;23.05;17.73;;;;;;;-0.37;100.00;66739.16;5009984;28;20084;-84
2023/01/22 09:40:57;;;;;;;26.65;21.63;;;;;;;-0.39;100.00;66732.22;5006460;28;20042;-83
2023/01/22 09:43:34;;;;;;;27.70;23.63;;;;;;;-0.43;100.00;66732.97;5007838;28;20404;-84
2023/01/22 09:46:08;;;;;;;29.27;23.00;;;;;;;-0.41;100.00;66735.22;5006548;28;20467;-83
2023/01/22 09:48:36;;;;;;;30.20;23.60;;;;;;;;;;5008507;28;20068;-83
2023/01/22 09:51:02;;;;;;;26.77;22.42;;;;;;;-0.42;100.00;66733.53;5007148;28;20045;-84
2023/01/22 09:53:28;;;;;;;30.10;21.95;;;;;;;;;;5006380;28;20041;-84
2023/01/22 09:56:00;;;;;;;26.35;21.55;;;;;;;-0.47;100.00;66731.09;5007167;28;20765;-84
2023/01/22 09:58:26;;;;;;;28.48;22.50;;;;;;;-0.46;100.00;66729.59;5007594;28;20180;-84
2023/01/22 10:00:58;;;;;;;27.70;22.15;;;;;;;-0.46;100.00;66730.16;5007364;28;20156;-84
2023/01/22 10:03:30;;;;;;;28.10;20.92;;;;;;;-0.48;100.00;66722.13;5006131;28;20052;-83
2023/01/22 10:05:59;;;;;;;28.77;22.17;;;;;;;-0.50;100.00;66728.28;5006102;28;20038;-84
2023/01/22 10:08:32;;;;;;;28.33;22.42;;;;;;;-0.45;100.00;66733.34;5007137;28;20509;-84
2023/01/22 10:10:59;;;;;;;33.17;26.73;;;;;;;;;;5007629;28;20069;-84
2023/01/22 10:13:32;;;;;;;44.63;34.05;;;;;;;-0.43;100.00;66732.97;5006696;28;20049;-84
2023/01/22 10:15:57;;;;;;;46.38;36.30;;;;;;;-0.40;100.00;66736.34;4991107;28;20096;-84
2023/01/22 10:18:39;;;;;;;31.90;26.27;;;;;;;;;;5008408;28;20054;-84
2023/01/22 10:21:25;;;;;;;33.78;23.13;;;;;;;-0.41;100.00;66737.81;4984129;28;20097;-84
2023/01/22 10:23:51;;;;;;;33.65;23.92;;;;;;;-0.43;100.00;66738.19;4983481;28;20046;-84
2023/01/22 10:26:20;;;;;;;45.05;33.50;;;;;;;;;;4984255;28;20039;-84
2023/01/22 10:28:52;;;;;;;34.58;26.10;;;;;;;-0.41;100.00;66740.44;5006103;28;20053;-84
2023/01/22 10:31:29;;;;;;;34.78;29.83;;;;;;;-0.43;100.00;66735.59;4989852;28;20049;-84
2023/01/22 10:34:08;;;;;;;42.00;34.33;;;;;;;-0.42;100.00;66734.09;5007140;28;20044;-84
2023/01/22 10:36:33;;;;;;;34.38;27.50;;;;;;;-0.36;100.00;66745.50;5002776;28;20053;-84
2023/01/22 10:39:14;;;;;;;53.42;39.72;;;;;;;;;;5006049;28;20042;-84
2023/01/22 10:41:40;;;;;;;63.25;44.08;;;;;;;-0.39;100.00;66731.69;4998800;28;20046;-84
2023/01/22 10:44:16;;;;;;;54.80;38.88;;;;;;;-0.41;100.00;66729.41;4992050;28;20065;-84
2023/01/22 10:46:42;;;;;;;69.05;48.25;;;;;;;-0.42;100.00;66736.72;5003969;28;20049;-84
2023/01/22 10:49:14;;;;;;;79.90;53.58;;;;;;;;;;5002569;28;20049;-84
2023/01/22 10:51:44;;;;;;;51.20;36.70;;;;;;;-0.42;100.00;66734.09;5003725;28;20708;-84
2023/01/22 10:54:23;;;;;;;35.42;27.63;;;;;;;-0.41;100.00;66737.81;5009122;28;20084;-84
2023/01/22 10:56:49;;;;;;;;;;;;;;;-0.41;100.00;66737.81;5008323;28;20057;-84
2023/01/22 10:59:21;;;;;;;45.67;34.72;;;;;;;-0.44;100.00;66731.84;5011435;28;19917;-83
2023/01/22 11:01:48;;;;;;;39.33;30.92;;;;;;;-0.42;100.00;66734.09;5011577;28;20390;-84
2023/01/22 11:04:27;;;;;;;49.08;34.63;;;;;;;-0.39;100.00;66737.47;5007786;28;20050;-84
2023/01/22 11:07:05;;;;;;;42.40;29.45;;;;;;;-0.36;100.00;66743.44;4987305;28;22408;-84
2023/01/22 11:09:43;;;;;;;34.00;26.00;;;;;;;-0.33;100.00;66746.25;5004939;28;20038;-84
2023/01/22 11:12:16;;;;;;;67.87;49.23;;;;;;;;;;5006607;28;20288;-84
2023/01/22 11:14:44;;;;;;;46.45;32.13;;;;;;;-0.28;100.00;66751.88;4990805;28;20301;-83
2023/01/22 11:17:20;;;;;;;42.95;31.77;;;;;;;;;;4987565;28;20038;-84
2023/01/22 11:19:50;;;;;;;46.33;29.98;;;;;;;;;;5010174;28;20041;-83
2023/01/22 11:22:27;;;;;;;38.30;28.00;;;;;;;-0.24;100.00;66756.94;5013127;28;20042;-83
2023/01/22 11:24:53;;;;;;;41.08;30.67;;;;;;;-0.29;100.00;66748.72;5012161;28;20133;-83
2023/01/22 11:27:20;;;;;;;45.63;33.30;;;;;;;-0.26;100.00;66751.50;5013264;28;20042;-83
2023/01/22 11:29:46;;;;;;;36.53;26.52;;;;;;;;;;5010263;28;20064;-84
2023/01/22 11:32:23;;;;;;;41.47;29.25;;;;;;;-0.19;100.00;66759.38;5009503;28;20054;-84
2023/01/22 11:35:12;;;;;;;39.20;29.08;;;;;;;-0.21;100.00;66757.13;5007451;28;20050;-83
2023/01/22 11:37:40;;;;;;;41.80;31.25;;;;;;;;;;5004581;28;20504;-83
2023/01/22 11:40:25;;;;;;;41.60;28.88;;;;;;;-0.16;100.00;66762.75;5009462;28;20489;-83
2023/01/22 11:43:24;;;;;;;35.92;26.20;;;;;;;-0.17;100.00;66761.06;5012042;28;20052;-83
2023/01/22 11:46:08;;;;;;;47.95;35.97;;;;;;;-0.18;100.00;66759.94;5007328;28;20046;-83
2023/01/22 11:48:33;;;;;;;32.50;24.15;;;;;;;-0.17;100.00;66761.06;5008307;28;20046;-83
2023/01/22 11:51:10;;;;;;;43.25;29.67;;;;;;;-0.09;100.00;66770.06;4993518;28;20909;-83
2023/01/22 11:53:46;;;;;;;42.25;32.42;;;;;;;-0.07;100.00;66775.47;5008662;28;20057;-83